sensor_id;sensor_type;location;lat;lon;timestamp;pressure;altitude;pressure_sealevel;temperature;humidity
75505;BME280;64085;54.974;73.410;2023-02-22T00:00:20;99591.41;;;0.82;67.59
75505;BME280;64085;54.974;73.410;2023-02-22T00:03:05;99615.69;;;0.93;67.21
75505;BME280;64085;54.974;73.410;2023-02-22T00:05:32;99616.31;;;1.12;66.19
75505;BME280;64085;54.974;73.410;2023-02-22T00:07:57;99575.47;;;0.90;67.11
75505;BME280;64085;54.974;73.410;2023-02-22T00:10:25;99631.06;;;0.97;66.93
75505;BME280;64085;54.974;73.410;2023-02-22T00:12:53;99643.16;;;1.05;66.67
75505;BME280;64085;54.974;73.410;2023-02-22T00:15:21;99602.75;;;0.98;66.28
75505;BME280;64085;54.974;73.410;2023-02-22T00:17:47;99619.00;;;0.90;66.73
75505;BME280;64085;54.974;73.410;2023-02-22T00:20:14;99623.22;;;0.96;66.50
75505;BME280;64085;54.974;73.410;2023-02-22T00:22:43;99599.56;;;0.82;67.02
75505;BME280;64085;54.974;73.410;2023-02-22T00:25:12;99606.44;;;0.66;68.46
75505;BME280;64085;54.974;73.410;2023-02-22T00:27:39;99562.91;;;0.80;68.29
75505;BME280;64085;54.974;73.410;2023-02-22T00:30:06;99570.88;;;0.76;67.51
75505;BME280;64085;54.974;73.410;2023-02-22T00:32:34;99582.50;;;0.91;68.10
75505;BME280;64085;54.974;73.410;2023-02-22T00:35:00;99546.53;;;0.94;68.03
75505;BME280;64085;54.974;73.410;2023-02-22T00:37:25;99598.22;;;1.16;68.50
75505;BME280;64085;54.974;73.410;2023-02-22T00:39:55;99569.56;;;1.10;67.02
75505;BME280;64085;54.974;73.410;2023-02-22T00:42:21;99633.56;;;1.07;68.03
75505;BME280;64085;54.974;73.410;2023-02-22T00:44:47;99519.16;;;1.21;67.60
75505;BME280;64085;54.974;73.410;2023-02-22T00:47:12;99567.59;;;1.55;67.10
75505;BME280;64085;54.974;73.410;2023-02-22T00:49:38;99590.19;;;1.56;67.05
75505;BME280;64085;54.974;73.410;2023-02-22T00:52:04;99577.53;;;1.29;67.82
75505;BME280;64085;54.974;73.410;2023-02-22T00:54:30;99573.38;;;1.31;67.55
75505;BME280;64085;54.974;73.410;2023-02-22T00:56:56;99585.59;;;1.65;67.49
75505;BME280;64085;54.974;73.410;2023-02-22T00:59:22;99572.97;;;1.69;66.83
75505;BME280;64085;54.974;73.410;2023-02-22T01:01:48;99563.81;;;1.74;66.35
75505;BME280;64085;54.974;73.410;2023-02-22T01:04:14;99569.56;;;1.63;66.85
75505;BME280;64085;54.974;73.410;2023-02-22T01:06:40;99596.75;;;1.32;67.40
75505;BME280;64085;54.974;73.410;2023-02-22T01:09:06;99554.66;;;1.38;66.75
75505;BME280;64085;54.974;73.410;2023-02-22T01:11:32;99577.41;;;1.65;66.84
75505;BME280;64085;54.974;73.410;2023-02-22T01:13:58;99576.69;;;1.51;66.88
75505;BME280;64085;54.974;73.410;2023-02-22T01:16:25;99543.28;;;1.36;67.26
75505;BME280;64085;54.974;73.410;2023-02-22T01:18:50;99567.53;;;1.47;66.65
75505;BME280;64085;54.974;73.410;2023-02-22T01:21:16;99543.78;;;1.38;66.65
75505;BME280;64085;54.974;73.410;2023-02-22T01:23:45;99554.59;;;1.52;67.17
75505;BME280;64085;54.974;73.410;2023-02-22T01:26:11;99581.16;;;1.47;67.10
75505;BME280;64085;54.974;73.410;2023-02-22T01:28:37;99562.53;;;1.71;66.39
75505;BME280;64085;54.974;73.410;2023-02-22T01:31:03;99552.44;;;1.40;66.84
75505;BME280;64085;54.974;73.410;2023-02-22T01:33:30;99528.16;;;1.53;66.24
75505;BME280;64085;54.974;73.410;2023-02-22T01:35:56;99537.97;;;1.62;66.35
75505;BME280;64085;54.974;73.410;2023-02-22T01:38:22;99561.84;;;1.96;66.10
75505;BME280;64085;54.974;73.410;2023-02-22T01:40:49;99528.75;;;1.81;66.91
75505;BME280;64085;54.974;73.410;2023-02-22T01:46:26;99502.72;;;1.66;66.95
75505;BME280;64085;54.974;73.410;2023-02-22T01:49:03;99511.16;;;1.87;66.33
75505;BME280;64085;54.974;73.410;2023-02-22T01:51:37;99543.25;;;1.98;65.75
75505;BME280;64085;54.974;73.410;2023-02-22T01:54:11;99537.78;;;1.90;66.03
75505;BME280;64085;54.974;73.410;2023-02-22T01:56:41;99550.19;;;1.74;66.59
75505;BME280;64085;54.974;73.410;2023-02-22T01:59:11;99519.56;;;2.16;65.77
75505;BME280;64085;54.974;73.410;2023-02-22T02:01:38;99566.66;;;2.00;65.86
75505;BME280;64085;54.974;73.410;2023-02-22T02:04:09;99527.28;;;2.23;65.10
75505;BME280;64085;54.974;73.410;2023-02-22T02:06:36;99514.53;;;2.01;66.24
75505;BME280;64085;54.974;73.410;2023-02-22T02:09:13;99531.66;;;2.41;65.44
75505;BME280;64085;54.974;73.410;2023-02-22T02:11:41;99506.75;;;2.34;65.06
75505;BME280;64085;54.974;73.410;2023-02-22T02:14:08;99560.53;;;1.85;66.66
75505;BME280;64085;54.974;73.410;2023-02-22T02:16:44;99531.31;;;2.34;65.79
75505;BME280;64085;54.974;73.410;2023-02-22T02:22:37;99534.81;;;2.26;65.12
75505;BME280;64085;54.974;73.410;2023-02-22T02:35:48;99528.88;;;1.76;65.19
75505;BME280;64085;54.974;73.410;2023-02-22T02:41:08;99536.63;;;1.82;64.11
75505;BME280;64085;54.974;73.410;2023-02-22T02:43:58;99547.41;;;1.96;63.80
75505;BME280;64085;54.974;73.410;2023-02-22T02:46:55;99536.84;;;1.94;63.21
75505;BME280;64085;54.974;73.410;2023-02-22T02:49:28;99515.84;;;1.95;63.29
75505;BME280;64085;54.974;73.410;2023-02-22T02:51:55;99487.97;;;2.24;62.82
75505;BME280;64085;54.974;73.410;2023-02-22T02:54:23;99519.03;;;1.97;63.64
75505;BME280;64085;54.974;73.410;2023-02-22T02:56:50;99479.53;;;1.37;63.98
75505;BME280;64085;54.974;73.410;2023-02-22T02:59:42;99493.28;;;2.20;62.67
75505;BME280;64085;54.974;73.410;2023-02-22T03:07:40;99480.00;;;1.71;63.61
75505;BME280;64085;54.974;73.410;2023-02-22T03:10:20;99493.50;;;1.93;62.73
75505;BME280;64085;54.974;73.410;2023-02-22T03:15:49;99493.09;;;2.17;62.73
75505;BME280;64085;54.974;73.410;2023-02-22T03:23:58;99488.44;;;2.17;61.57
75505;BME280;64085;54.974;73.410;2023-02-22T03:27:05;99503.06;;;2.30;61.49
75505;BME280;64085;54.974;73.410;2023-02-22T03:29:38;99494.09;;;2.30;61.02
75505;BME280;64085;54.974;73.410;2023-02-22T03:32:10;99467.13;;;2.11;61.70
75505;BME280;64085;54.974;73.410;2023-02-22T03:34:44;99481.91;;;2.27;61.48
75505;BME280;64085;54.974;73.410;2023-02-22T03:37:21;99477.72;;;2.21;61.25
75505;BME280;64085;54.974;73.410;2023-02-22T03:39:52;99477.28;;;2.62;60.41
75505;BME280;64085;54.974;73.410;2023-02-22T03:42:37;99458.78;;;2.85;59.95
75505;BME280;64085;54.974;73.410;2023-02-22T03:45:07;99455.91;;;2.47;60.61
75505;BME280;64085;54.974;73.410;2023-02-22T03:47:47;99471.00;;;2.62;59.91
75505;BME280;64085;54.974;73.410;2023-02-22T03:50:20;99466.44;;;3.09;59.44
75505;BME280;64085;54.974;73.410;2023-02-22T03:52:47;99439.69;;;2.59;59.72
75505;BME280;64085;54.974;73.410;2023-02-22T03:55:14;99422.19;;;2.86;59.02
75505;BME280;64085;54.974;73.410;2023-02-22T03:57:53;99488.50;;;2.69;59.65
75505;BME280;64085;54.974;73.410;2023-02-22T04:00:24;99444.66;;;2.74;59.25
75505;BME280;64085;54.974;73.410;2023-02-22T04:02:50;99459.78;;;2.63;59.46
75505;BME280;64085;54.974;73.410;2023-02-22T04:05:21;99395.97;;;2.94;58.78
75505;BME280;64085;54.974;73.410;2023-02-22T04:07:54;99451.19;;;3.08;58.58
75505;BME280;64085;54.974;73.410;2023-02-22T04:10:20;99445.91;;;2.86;59.06
75505;BME280;64085;54.974;73.410;2023-02-22T04:12:48;99416.59;;;3.59;57.46
75505;BME280;64085;54.974;73.410;2023-02-22T04:15:19;99377.97;;;2.93;57.81
75505;BME280;64085;54.974;73.410;2023-02-22T04:17:45;99444.22;;;3.28;57.24
75505;BME280;64085;54.974;73.410;2023-02-22T04:20:12;99441.78;;;3.35;58.39
75505;BME280;64085;54.974;73.410;2023-02-22T04:22:40;99453.88;;;4.22;56.70
75505;BME280;64085;54.974;73.410;2023-02-22T04:25:06;99469.41;;;3.80;55.53
75505;BME280;64085;54.974;73.410;2023-02-22T04:27:32;99438.03;;;3.48;57.02
75505;BME280;64085;54.974;73.410;2023-02-22T04:30:04;99403.41;;;3.61;56.79
75505;BME280;64085;54.974;73.410;2023-02-22T04:32:30;99424.81;;;3.88;55.76
75505;BME280;64085;54.974;73.410;2023-02-22T04:34:56;99409.84;;;3.65;56.59
75505;BME280;64085;54.974;73.410;2023-02-22T04:37:21;99409.38;;;4.13;56.47
75505;BME280;64085;54.974;73.410;2023-02-22T04:39:47;99420.03;;;4.27;54.72
75505;BME280;64085;54.974;73.410;2023-02-22T04:42:12;99376.75;;;4.08;55.19
75505;BME280;64085;54.974;73.410;2023-02-22T04:44:38;99427.06;;;3.86;55.45
75505;BME280;64085;54.974;73.410;2023-02-22T04:47:05;99427.50;;;4.18;54.97
75505;BME280;64085;54.974;73.410;2023-02-22T04:49:32;99436.84;;;3.96;54.97
75505;BME280;64085;54.974;73.410;2023-02-22T04:51:57;99391.03;;;4.68;53.97
75505;BME280;64085;54.974;73.410;2023-02-22T04:54:23;99411.13;;;4.39;54.99
75505;BME280;64085;54.974;73.410;2023-02-22T04:56:49;99411.44;;;4.70;54.36
75505;BME280;64085;54.974;73.410;2023-02-22T04:59:16;99418.56;;;4.50;53.51
75505;BME280;64085;54.974;73.410;2023-02-22T05:01:44;99364.94;;;4.16;53.98
75505;BME280;64085;54.974;73.410;2023-02-22T05:04:10;99413.66;;;4.77;53.54
75505;BME280;64085;54.974;73.410;2023-02-22T05:06:36;99411.59;;;5.07;52.69
75505;BME280;64085;54.974;73.410;2023-02-22T05:09:02;99410.03;;;6.16;52.08
75505;BME280;64085;54.974;73.410;2023-02-22T05:11:29;99400.75;;;4.77;53.54
75505;BME280;64085;54.974;73.410;2023-02-22T05:13:55;99349.72;;;5.06;52.14
75505;BME280;64085;54.974;73.410;2023-02-22T05:16:22;99431.28;;;5.58;51.88
75505;BME280;64085;54.974;73.410;2023-02-22T05:18:49;99401.81;;;4.85;53.02
75505;BME280;64085;54.974;73.410;2023-02-22T05:21:15;99354.31;;;4.69;52.83
75505;BME280;64085;54.974;73.410;2023-02-22T05:23:41;99383.84;;;5.08;53.46
75505;BME280;64085;54.974;73.410;2023-02-22T05:26:06;99365.16;;;5.35;52.74
75505;BME280;64085;54.974;73.410;2023-02-22T05:28:32;99390.69;;;4.15;54.39
75505;BME280;64085;54.974;73.410;2023-02-22T05:30:58;99357.03;;;4.36;54.45
75505;BME280;64085;54.974;73.410;2023-02-22T05:33:25;99365.06;;;3.99;55.02
75505;BME280;64085;54.974;73.410;2023-02-22T05:35:52;99351.72;;;4.72;54.42
75505;BME280;64085;54.974;73.410;2023-02-22T05:38:21;99379.47;;;4.62;53.42
75505;BME280;64085;54.974;73.410;2023-02-22T05:40:48;99342.84;;;4.01;54.95
75505;BME280;64085;54.974;73.410;2023-02-22T05:43:15;99350.81;;;4.47;54.06
75505;BME280;64085;54.974;73.410;2023-02-22T05:45:40;99328.50;;;4.58;54.53
75505;BME280;64085;54.974;73.410;2023-02-22T05:48:07;99361.72;;;4.68;52.51
75505;BME280;64085;54.974;73.410;2023-02-22T05:50:33;99346.44;;;4.67;53.21
75505;BME280;64085;54.974;73.410;2023-02-22T05:53:00;99384.88;;;5.16;53.63
75505;BME280;64085;54.974;73.410;2023-02-22T05:55:26;99323.47;;;4.27;54.02
75505;BME280;64085;54.974;73.410;2023-02-22T05:57:56;99302.47;;;5.21;52.99
75505;BME280;64085;54.974;73.410;2023-02-22T06:00:27;99344.69;;;5.08;53.24
75505;BME280;64085;54.974;73.410;2023-02-22T06:03:00;99308.84;;;5.37;51.57
75505;BME280;64085;54.974;73.410;2023-02-22T06:05:27;99290.81;;;5.00;52.57
75505;BME280;64085;54.974;73.410;2023-02-22T06:07:55;99339.34;;;5.24;52.38
75505;BME280;64085;54.974;73.410;2023-02-22T06:10:25;99261.50;;;4.88;52.17
75505;BME280;64085;54.974;73.410;2023-02-22T06:12:51;99274.72;;;5.11;52.74
75505;BME280;64085;54.974;73.410;2023-02-22T06:15:19;99310.84;;;5.77;53.22
75505;BME280;64085;54.974;73.410;2023-02-22T06:17:46;99261.56;;;5.28;52.51
75505;BME280;64085;54.974;73.410;2023-02-22T06:20:14;99272.41;;;6.02;50.85
75505;BME280;64085;54.974;73.410;2023-02-22T06:22:40;99280.19;;;5.87;51.25
75505;BME280;64085;54.974;73.410;2023-02-22T06:25:12;99262.91;;;6.27;49.53
75505;BME280;64085;54.974;73.410;2023-02-22T06:27:38;99308.28;;;6.37;50.40
75505;BME280;64085;54.974;73.410;2023-02-22T06:30:04;99274.72;;;6.43;49.99
75505;BME280;64085;54.974;73.410;2023-02-22T06:32:30;99292.31;;;5.99;50.98
75505;BME280;64085;54.974;73.410;2023-02-22T06:34:56;99308.50;;;5.63;51.07
75505;BME280;64085;54.974;73.410;2023-02-22T06:37:21;99275.19;;;5.77;52.33
75505;BME280;64085;54.974;73.410;2023-02-22T06:39:47;99271.06;;;5.31;51.59
75505;BME280;64085;54.974;73.410;2023-02-22T06:42:13;99204.09;;;4.92;50.99
75505;BME280;64085;54.974;73.410;2023-02-22T06:44:39;99279.00;;;5.73;52.95
75505;BME280;64085;54.974;73.410;2023-02-22T06:47:05;99328.47;;;5.52;52.57
75505;BME280;64085;54.974;73.410;2023-02-22T06:49:31;99272.09;;;5.14;52.98
75505;BME280;64085;54.974;73.410;2023-02-22T06:51:57;99255.56;;;5.75;53.01
75505;BME280;64085;54.974;73.410;2023-02-22T06:54:23;99256.25;;;5.72;52.10
75505;BME280;64085;54.974;73.410;2023-02-22T06:56:48;99283.25;;;5.46;51.24
75505;BME280;64085;54.974;73.410;2023-02-22T06:59:15;99269.63;;;5.74;52.49
75505;BME280;64085;54.974;73.410;2023-02-22T07:01:41;99260.53;;;5.45;51.18
75505;BME280;64085;54.974;73.410;2023-02-22T07:04:07;99252.00;;;5.22;51.19
75505;BME280;64085;54.974;73.410;2023-02-22T07:06:33;99262.38;;;5.29;51.17
75505;BME280;64085;54.974;73.410;2023-02-22T07:08:59;99246.63;;;5.90;50.68
75505;BME280;64085;54.974;73.410;2023-02-22T07:11:25;99261.97;;;5.55;50.71
75505;BME280;64085;54.974;73.410;2023-02-22T07:13:51;99226.88;;;5.32;50.49
75505;BME280;64085;54.974;73.410;2023-02-22T07:16:17;99244.22;;;6.17;51.46
75505;BME280;64085;54.974;73.410;2023-02-22T07:18:43;99259.97;;;6.80;49.44
75505;BME280;64085;54.974;73.410;2023-02-22T07:21:08;99258.03;;;5.92;49.69
75505;BME280;64085;54.974;73.410;2023-02-22T07:23:35;99233.19;;;6.01;51.52
75505;BME280;64085;54.974;73.410;2023-02-22T07:26:02;99257.25;;;5.40;50.74
75505;BME280;64085;54.974;73.410;2023-02-22T07:28:29;99249.91;;;5.56;52.24
75505;BME280;64085;54.974;73.410;2023-02-22T07:30:55;99244.25;;;5.24;51.67
75505;BME280;64085;54.974;73.410;2023-02-22T07:33:21;99249.25;;;6.59;50.94
75505;BME280;64085;54.974;73.410;2023-02-22T07:35:48;99245.56;;;5.43;50.21
75505;BME280;64085;54.974;73.410;2023-02-22T07:38:16;99227.03;;;6.20;50.12
75505;BME280;64085;54.974;73.410;2023-02-22T07:40:43;99198.59;;;5.04;50.51
75505;BME280;64085;54.974;73.410;2023-02-22T07:45:42;99201.66;;;5.67;49.48
75505;BME280;64085;54.974;73.410;2023-02-22T07:48:09;99203.75;;;5.58;51.05
75505;BME280;64085;54.974;73.410;2023-02-22T07:50:37;99204.75;;;6.37;49.57
75505;BME280;64085;54.974;73.410;2023-02-22T07:53:05;99179.69;;;5.39;50.08
75505;BME280;64085;54.974;73.410;2023-02-22T07:55:34;99204.16;;;5.72;50.34
75505;BME280;64085;54.974;73.410;2023-02-22T07:58:05;99166.72;;;5.64;50.36
75505;BME280;64085;54.974;73.410;2023-02-22T08:00:40;99176.75;;;5.20;52.12
75505;BME280;64085;54.974;73.410;2023-02-22T08:03:10;99172.13;;;5.76;52.41
75505;BME280;64085;54.974;73.410;2023-02-22T08:05:40;99187.16;;;5.95;50.49
75505;BME280;64085;54.974;73.410;2023-02-22T08:08:07;99164.03;;;4.99;50.62
75505;BME280;64085;54.974;73.410;2023-02-22T08:10:33;99163.78;;;5.57;51.05
75505;BME280;64085;54.974;73.410;2023-02-22T08:13:03;99140.47;;;6.38;48.52
75505;BME280;64085;54.974;73.410;2023-02-22T08:15:33;99152.91;;;6.48;48.83
75505;BME280;64085;54.974;73.410;2023-02-22T08:18:01;99147.03;;;6.34;48.40
75505;BME280;64085;54.974;73.410;2023-02-22T08:20:30;99110.13;;;6.15;48.15
75505;BME280;64085;54.974;73.410;2023-02-22T08:22:56;99135.88;;;6.58;48.40
75505;BME280;64085;54.974;73.410;2023-02-22T08:25:42;99156.84;;;6.19;51.48
75505;BME280;64085;54.974;73.410;2023-02-22T08:28:10;99138.69;;;5.99;49.12
75505;BME280;64085;54.974;73.410;2023-02-22T08:30:41;99109.91;;;6.56;48.92
75505;BME280;64085;54.974;73.410;2023-02-22T08:33:09;99108.03;;;7.30;47.96
75505;BME280;64085;54.974;73.410;2023-02-22T08:35:38;99126.94;;;6.14;49.00
75505;BME280;64085;54.974;73.410;2023-02-22T08:38:06;99103.44;;;6.64;48.52
75505;BME280;64085;54.974;73.410;2023-02-22T08:40:34;99102.41;;;6.88;50.23
75505;BME280;64085;54.974;73.410;2023-02-22T08:43:01;99101.91;;;6.82;51.10
75505;BME280;64085;54.974;73.410;2023-02-22T08:45:27;99067.47;;;5.58;49.58
75505;BME280;64085;54.974;73.410;2023-02-22T08:47:54;99063.84;;;6.14;51.43
75505;BME280;64085;54.974;73.410;2023-02-22T08:50:29;99075.88;;;5.65;50.71
75505;BME280;64085;54.974;73.410;2023-02-22T08:52:57;99129.72;;;5.58;50.74
75505;BME280;64085;54.974;73.410;2023-02-22T08:55:28;99134.63;;;5.64;50.74
75505;BME280;64085;54.974;73.410;2023-02-22T08:57:56;99076.75;;;5.70;50.83
75505;BME280;64085;54.974;73.410;2023-02-22T09:00:22;99109.63;;;5.82;51.56
75505;BME280;64085;54.974;73.410;2023-02-22T09:02:54;99071.25;;;5.26;52.52
75505;BME280;64085;54.974;73.410;2023-02-22T09:05:20;99063.59;;;5.31;52.09
75505;BME280;64085;54.974;73.410;2023-02-22T09:07:45;99075.34;;;5.60;51.54
75505;BME280;64085;54.974;73.410;2023-02-22T09:10:18;99096.81;;;5.58;51.48
75505;BME280;64085;54.974;73.410;2023-02-22T09:12:44;99043.16;;;5.57;51.63
75505;BME280;64085;54.974;73.410;2023-02-22T09:15:11;99101.91;;;5.87;51.15
75505;BME280;64085;54.974;73.410;2023-02-22T09:17:37;99075.69;;;6.18;50.57
75505;BME280;64085;54.974;73.410;2023-02-22T09:20:05;99052.41;;;5.96;50.58
75505;BME280;64085;54.974;73.410;2023-02-22T09:22:31;99080.31;;;5.86;50.18
75505;BME280;64085;54.974;73.410;2023-02-22T09:24:56;99031.06;;;6.21;50.72
75505;BME280;64085;54.974;73.410;2023-02-22T09:27:22;99091.88;;;5.91;50.01
75505;BME280;64085;54.974;73.410;2023-02-22T09:29:48;99041.72;;;5.63;50.28
75505;BME280;64085;54.974;73.410;2023-02-22T09:32:14;99043.59;;;5.59;50.58
75505;BME280;64085;54.974;73.410;2023-02-22T09:34:43;99033.69;;;5.70;50.91
75505;BME280;64085;54.974;73.410;2023-02-22T09:37:12;99042.53;;;5.48;51.66
75505;BME280;64085;54.974;73.410;2023-02-22T09:39:38;98981.22;;;5.40;50.91
75505;BME280;64085;54.974;73.410;2023-02-22T09:42:32;99018.88;;;4.99;51.44
75505;BME280;64085;54.974;73.410;2023-02-22T09:45:05;99030.66;;;5.44;52.32
75505;BME280;64085;54.974;73.410;2023-02-22T09:47:59;99034.09;;;5.41;51.96
75505;BME280;64085;54.974;73.410;2023-02-22T09:50:34;98971.69;;;5.50;51.74
75505;BME280;64085;54.974;73.410;2023-02-22T09:55:37;98991.75;;;5.10;51.47
75505;BME280;64085;54.974;73.410;2023-02-22T09:58:32;98959.78;;;4.58;52.17
75505;BME280;64085;54.974;73.410;2023-02-22T10:01:24;99025.84;;;5.25;52.20
75505;BME280;64085;54.974;73.410;2023-02-22T10:07:00;99030.81;;;5.07;52.33
75505;BME280;64085;54.974;73.410;2023-02-22T10:09:31;99011.00;;;4.98;52.38
75505;BME280;64085;54.974;73.410;2023-02-22T10:12:10;99013.63;;;4.94;52.69
75505;BME280;64085;54.974;73.410;2023-02-22T10:19:59;99019.25;;;4.86;52.23
75505;BME280;64085;54.974;73.410;2023-02-22T10:25:20;98971.06;;;5.41;51.57
75505;BME280;64085;54.974;73.410;2023-02-22T10:27:57;98942.69;;;5.64;52.33
75505;BME280;64085;54.974;73.410;2023-02-22T10:30:34;98974.34;;;5.62;50.91
75505;BME280;64085;54.974;73.410;2023-02-22T10:35:35;98894.41;;;5.44;51.22
75505;BME280;64085;54.974;73.410;2023-02-22T10:40:38;98960.78;;;5.37;51.49
75505;BME280;64085;54.974;73.410;2023-02-22T10:43:07;98934.09;;;5.34;51.25
75505;BME280;64085;54.974;73.410;2023-02-22T10:45:35;98927.63;;;5.11;51.43
75505;BME280;64085;54.974;73.410;2023-02-22T10:48:11;98979.91;;;5.50;51.10
75505;BME280;64085;54.974;73.410;2023-02-22T10:50:41;98919.84;;;5.76;51.04
75505;BME280;64085;54.974;73.410;2023-02-22T10:53:08;98911.88;;;5.71;51.64
75505;BME280;64085;54.974;73.410;2023-02-22T10:55:35;98905.78;;;5.78;51.77
75505;BME280;64085;54.974;73.410;2023-02-22T10:58:06;98872.19;;;4.86;51.79
75505;BME280;64085;54.974;73.410;2023-02-22T11:00:35;98945.09;;;4.78;52.96
75505;BME280;64085;54.974;73.410;2023-02-22T11:05:40;98968.78;;;4.99;52.25
75505;BME280;64085;54.974;73.410;2023-02-22T11:08:15;98914.00;;;4.99;53.03
75505;BME280;64085;54.974;73.410;2023-02-22T11:10:41;98902.13;;;4.95;52.10
75505;BME280;64085;54.974;73.410;2023-02-22T11:15:51;98884.75;;;4.59;54.21
75505;BME280;64085;54.974;73.410;2023-02-22T11:18:30;98906.56;;;4.56;54.45
75505;BME280;64085;54.974;73.410;2023-02-22T11:21:06;98871.16;;;3.94;54.59
75505;BME280;64085;54.974;73.410;2023-02-22T11:23:33;98887.34;;;4.40;53.87
75505;BME280;64085;54.974;73.410;2023-02-22T11:26:04;98848.47;;;3.94;54.59
75505;BME280;64085;54.974;73.410;2023-02-22T11:28:32;98899.28;;;3.95;54.64
75505;BME280;64085;54.974;73.410;2023-02-22T11:31:10;98866.38;;;4.04;55.04
75505;BME280;64085;54.974;73.410;2023-02-22T11:33:38;98869.44;;;4.02;56.07
75505;BME280;64085;54.974;73.410;2023-02-22T11:36:04;98832.88;;;3.94;55.66
75505;BME280;64085;54.974;73.410;2023-02-22T11:38:36;98890.00;;;4.24;55.98
75505;BME280;64085;54.974;73.410;2023-02-22T11:41:27;98859.09;;;3.83;56.77
75505;BME280;64085;54.974;73.410;2023-02-22T11:43:53;98884.94;;;3.98;56.61
75505;BME280;64085;54.974;73.410;2023-02-22T11:46:39;98853.03;;;4.02;56.24
75505;BME280;64085;54.974;73.410;2023-02-22T11:49:09;98846.09;;;3.92;56.34
75505;BME280;64085;54.974;73.410;2023-02-22T11:54:22;98857.63;;;3.86;57.18
75505;BME280;64085;54.974;73.410;2023-02-22T11:57:38;98847.94;;;3.88;56.64
75505;BME280;64085;54.974;73.410;2023-02-22T12:09:26;98846.63;;;3.46;57.44
75505;BME280;64085;54.974;73.410;2023-02-22T12:14:20;98809.72;;;3.52;57.66
75505;BME280;64085;54.974;73.410;2023-02-22T12:19:43;98806.69;;;3.29;57.40
75505;BME280;64085;54.974;73.410;2023-02-22T12:22:26;98801.91;;;3.26;57.71
75505;BME280;64085;54.974;73.410;2023-02-22T12:27:43;98818.97;;;3.47;57.08
75505;BME280;64085;54.974;73.410;2023-02-22T12:30:17;98771.41;;;3.88;57.06
75505;BME280;64085;54.974;73.410;2023-02-22T12:33:37;98792.53;;;3.51;57.70
75505;BME280;64085;54.974;73.410;2023-02-22T12:35:35;98771.38;;;3.48;57.28
75505;BME280;64085;54.974;73.410;2023-02-22T12:38:09;98788.09;;;3.59;57.18
75505;BME280;64085;54.974;73.410;2023-02-22T12:43:41;98798.09;;;3.79;56.55
75505;BME280;64085;54.974;73.410;2023-02-22T12:46:14;98743.22;;;4.00;56.66
75505;BME280;64085;54.974;73.410;2023-02-22T12:51:57;98758.19;;;3.90;56.19
75505;BME280;64085;54.974;73.410;2023-02-22T13:00:21;98778.31;;;3.98;62.19
75505;BME280;64085;54.974;73.410;2023-02-22T13:05:38;98784.00;;;3.93;59.92
75505;BME280;64085;54.974;73.410;2023-02-22T13:08:33;98732.22;;;4.12;59.84
75505;BME280;64085;54.974;73.410;2023-02-22T13:16:36;98768.06;;;4.23;60.62
75505;BME280;64085;54.974;73.410;2023-02-22T13:25:01;98709.47;;;3.80;57.85
75505;BME280;64085;54.974;73.410;2023-02-22T13:27:41;98716.31;;;3.74;58.01
75505;BME280;64085;54.974;73.410;2023-02-22T13:30:35;98701.84;;;3.46;57.55
75505;BME280;64085;54.974;73.410;2023-02-22T13:52:52;98699.03;;;3.30;58.90
75505;BME280;64085;54.974;73.410;2023-02-22T13:55:25;98682.81;;;3.49;58.65
75505;BME280;64085;54.974;73.410;2023-02-22T14:39:44;98625.78;;;3.76;57.91
75505;BME280;64085;54.974;73.410;2023-02-22T14:42:18;98618.00;;;3.62;57.48
75505;BME280;64085;54.974;73.410;2023-02-22T14:47:41;98602.00;;;3.48;58.16
75505;BME280;64085;54.974;73.410;2023-02-22T14:50:20;98612.81;;;3.17;58.88
75505;BME280;64085;54.974;73.410;2023-02-22T14:53:02;98645.84;;;3.12;60.01
75505;BME280;64085;54.974;73.410;2023-02-22T14:55:30;98620.41;;;3.23;60.92
75505;BME280;64085;54.974;73.410;2023-02-22T14:58:22;98627.69;;;2.79;61.32
75505;BME280;64085;54.974;73.410;2023-02-22T15:00:51;98569.09;;;2.89;61.51
75505;BME280;64085;54.974;73.410;2023-02-22T15:05:46;98605.47;;;3.33;60.27
75505;BME280;64085;54.974;73.410;2023-02-22T15:08:16;98596.34;;;3.13;60.84
75505;BME280;64085;54.974;73.410;2023-02-22T15:10:44;98565.19;;;2.62;60.76
75505;BME280;64085;54.974;73.410;2023-02-22T15:13:17;98579.38;;;3.20;60.18
75505;BME280;64085;54.974;73.410;2023-02-22T15:15:45;98591.75;;;3.17;59.37
75505;BME280;64085;54.974;73.410;2023-02-22T15:18:25;98606.75;;;3.23;60.27
75505;BME280;64085;54.974;73.410;2023-02-22T15:20:56;98620.13;;;3.13;59.79
75505;BME280;64085;54.974;73.410;2023-02-22T15:23:25;98585.28;;;3.09;60.55
75505;BME280;64085;54.974;73.410;2023-02-22T15:25:55;98599.09;;;3.01;60.59
75505;BME280;64085;54.974;73.410;2023-02-22T15:28:22;98585.66;;;3.08;60.09
75505;BME280;64085;54.974;73.410;2023-02-22T15:30:48;98652.56;;;2.77;60.12
75505;BME280;64085;54.974;73.410;2023-02-22T15:33:19;98651.53;;;2.94;60.42
75505;BME280;64085;54.974;73.410;2023-02-22T15:35:53;98589.56;;;2.95;60.69
75505;BME280;64085;54.974;73.410;2023-02-22T15:38:21;98573.69;;;2.60;61.47
75505;BME280;64085;54.974;73.410;2023-02-22T15:41:05;98609.84;;;3.22;60.93
75505;BME280;64085;54.974;73.410;2023-02-22T15:43:33;98583.13;;;2.75;61.08
75505;BME280;64085;54.974;73.410;2023-02-22T15:46:00;98626.00;;;2.62;61.59
75505;BME280;64085;54.974;73.410;2023-02-22T15:48:27;98622.25;;;2.79;61.03
75505;BME280;64085;54.974;73.410;2023-02-22T15:51:10;98545.03;;;2.66;61.26
75505;BME280;64085;54.974;73.410;2023-02-22T15:53:45;98477.25;;;2.40;61.02
75505;BME280;64085;54.974;73.410;2023-02-22T15:56:15;98618.72;;;2.78;61.04
75505;BME280;64085;54.974;73.410;2023-02-22T15:58:43;98642.25;;;2.59;61.17
75505;BME280;64085;54.974;73.410;2023-02-22T16:01:13;98605.09;;;2.54;60.39
75505;BME280;64085;54.974;73.410;2023-02-22T16:03:44;98571.44;;;2.50;61.09
75505;BME280;64085;54.974;73.410;2023-02-22T16:06:26;98544.41;;;2.33;61.11
75505;BME280;64085;54.974;73.410;2023-02-22T16:08:54;98586.34;;;2.28;61.27